sensor_id;sensor_type;location;lat;lon;timestamp;temperature;humidity
16995;DHT22;8614;48.522;9.206;2023-07-13T00:00:47;20.70;99.90
16995;DHT22;8614;48.522;9.206;2023-07-13T00:03:14;20.70;99.90
16995;DHT22;8614;48.522;9.206;2023-07-13T00:05:41;20.60;99.90
16995;DHT22;8614;48.522;9.206;2023-07-13T00:08:08;20.60;99.90
16995;DHT22;8614;48.522;9.206;2023-07-13T00:10:39;20.50;99.90
16995;DHT22;8614;48.522;9.206;2023-07-13T00:13:08;20.40;99.90
16995;DHT22;8614;48.522;9.206;2023-07-13T00:15:36;20.30;99.90
16995;DHT22;8614;48.522;9.206;2023-07-13T00:18:03;20.30;99.90
16995;DHT22;8614;48.522;9.206;2023-07-13T00:20:29;20.30;99.90
16995;DHT22;8614;48.522;9.206;2023-07-13T00:22:56;20.20;99.90
16995;DHT22;8614;48.522;9.206;2023-07-13T00:25:23;20.20;99.90
16995;DHT22;8614;48.522;9.206;2023-07-13T00:27:53;20.20;99.90
16995;DHT22;8614;48.522;9.206;2023-07-13T00:30:22;20.10;99.90
16995;DHT22;8614;48.522;9.206;2023-07-13T00:32:49;20.10;99.90
16995;DHT22;8614;48.522;9.206;2023-07-13T00:35:16;20.00;99.90
16995;DHT22;8614;48.522;9.206;2023-07-13T00:37:43;19.90;99.90
16995;DHT22;8614;48.522;9.206;2023-07-13T00:40:12;19.90;99.90
16995;DHT22;8614;48.522;9.206;2023-07-13T00:42:39;19.90;99.90
16995;DHT22;8614;48.522;9.206;2023-07-13T00:47:51;19.80;99.90
16995;DHT22;8614;48.522;9.206;2023-07-13T00:50:20;19.80;99.90
16995;DHT22;8614;48.522;9.206;2023-07-13T00:52:50;19.80;99.90
16995;DHT22;8614;48.522;9.206;2023-07-13T00:55:20;19.80;99.90
16995;DHT22;8614;48.522;9.206;2023-07-13T00:57:48;19.70;99.90
16995;DHT22;8614;48.522;9.206;2023-07-13T01:00:15;19.80;99.90
16995;DHT22;8614;48.522;9.206;2023-07-13T01:02:45;19.70;99.90
16995;DHT22;8614;48.522;9.206;2023-07-13T01:05:16;19.80;99.90
16995;DHT22;8614;48.522;9.206;2023-07-13T01:07:44;19.80;99.90
16995;DHT22;8614;48.522;9.206;2023-07-13T01:10:12;19.80;99.90
16995;DHT22;8614;48.522;9.206;2023-07-13T01:12:39;19.80;99.90
16995;DHT22;8614;48.522;9.206;2023-07-13T01:15:36;19.80;99.90
16995;DHT22;8614;48.522;9.206;2023-07-13T01:18:04;19.80;99.90
16995;DHT22;8614;48.522;9.206;2023-07-13T01:20:33;19.80;99.90
16995;DHT22;8614;48.522;9.206;2023-07-13T01:23:06;19.90;99.90
16995;DHT22;8614;48.522;9.206;2023-07-13T01:25:34;19.90;99.90
16995;DHT22;8614;48.522;9.206;2023-07-13T01:28:03;19.90;99.90
16995;DHT22;8614;48.522;9.206;2023-07-13T01:30:30;19.90;99.90
16995;DHT22;8614;48.522;9.206;2023-07-13T01:32:57;19.90;99.90
16995;DHT22;8614;48.522;9.206;2023-07-13T01:35:26;19.90;99.90
16995;DHT22;8614;48.522;9.206;2023-07-13T01:37:52;19.90;99.90
16995;DHT22;8614;48.522;9.206;2023-07-13T01:40:21;19.90;99.90
16995;DHT22;8614;48.522;9.206;2023-07-13T01:42:47;19.90;99.90
16995;DHT22;8614;48.522;9.206;2023-07-13T01:45:14;20.00;99.90
16995;DHT22;8614;48.522;9.206;2023-07-13T01:47:41;20.00;99.90
16995;DHT22;8614;48.522;9.206;2023-07-13T01:50:09;19.90;99.90
16995;DHT22;8614;48.522;9.206;2023-07-13T01:52:36;19.90;99.90
16995;DHT22;8614;48.522;9.206;2023-07-13T01:55:04;19.90;99.90
16995;DHT22;8614;48.522;9.206;2023-07-13T01:57:32;19.90;99.90
16995;DHT22;8614;48.522;9.206;2023-07-13T01:59:59;19.90;99.90
16995;DHT22;8614;48.522;9.206;2023-07-13T02:02:26;19.90;99.90
16995;DHT22;8614;48.522;9.206;2023-07-13T02:04:53;19.80;99.90
16995;DHT22;8614;48.522;9.206;2023-07-13T02:07:20;19.80;99.90
16995;DHT22;8614;48.522;9.206;2023-07-13T02:09:47;19.80;99.90
16995;DHT22;8614;48.522;9.206;2023-07-13T02:12:14;19.70;99.90
16995;DHT22;8614;48.522;9.206;2023-07-13T02:14:42;19.70;99.90
16995;DHT22;8614;48.522;9.206;2023-07-13T02:17:10;19.60;99.90
16995;DHT22;8614;48.522;9.206;2023-07-13T02:19:37;19.60;99.90
16995;DHT22;8614;48.522;9.206;2023-07-13T02:22:04;19.50;99.90
16995;DHT22;8614;48.522;9.206;2023-07-13T02:24:31;19.50;99.90
16995;DHT22;8614;48.522;9.206;2023-07-13T02:26:58;19.50;99.90
16995;DHT22;8614;48.522;9.206;2023-07-13T02:29:25;19.40;99.90
16995;DHT22;8614;48.522;9.206;2023-07-13T02:31:53;19.30;99.90
16995;DHT22;8614;48.522;9.206;2023-07-13T02:34:21;19.30;99.90
16995;DHT22;8614;48.522;9.206;2023-07-13T02:36:48;19.30;99.90
16995;DHT22;8614;48.522;9.206;2023-07-13T02:39:14;19.20;99.90
16995;DHT22;8614;48.522;9.206;2023-07-13T02:41:42;19.10;99.90
16995;DHT22;8614;48.522;9.206;2023-07-13T02:44:09;19.10;99.90
16995;DHT22;8614;48.522;9.206;2023-07-13T02:46:40;19.00;99.90
16995;DHT22;8614;48.522;9.206;2023-07-13T02:49:08;19.00;99.90
16995;DHT22;8614;48.522;9.206;2023-07-13T02:51:35;18.90;99.90
16995;DHT22;8614;48.522;9.206;2023-07-13T02:54:04;18.80;99.90
16995;DHT22;8614;48.522;9.206;2023-07-13T02:56:34;18.70;99.90
16995;DHT22;8614;48.522;9.206;2023-07-13T02:59:01;18.60;99.90
16995;DHT22;8614;48.522;9.206;2023-07-13T03:01:28;18.50;99.90
16995;DHT22;8614;48.522;9.206;2023-07-13T03:03:55;18.40;99.90
16995;DHT22;8614;48.522;9.206;2023-07-13T03:06:23;18.40;99.90
16995;DHT22;8614;48.522;9.206;2023-07-13T03:08:52;18.30;99.90
16995;DHT22;8614;48.522;9.206;2023-07-13T03:11:20;18.30;99.90
16995;DHT22;8614;48.522;9.206;2023-07-13T03:13:54;18.30;99.90
16995;DHT22;8614;48.522;9.206;2023-07-13T03:16:23;18.30;99.90
16995;DHT22;8614;48.522;9.206;2023-07-13T03:18:51;18.30;99.90
16995;DHT22;8614;48.522;9.206;2023-07-13T03:21:18;18.30;99.90
16995;DHT22;8614;48.522;9.206;2023-07-13T03:23:47;18.30;99.90
16995;DHT22;8614;48.522;9.206;2023-07-13T03:26:16;18.30;99.90
16995;DHT22;8614;48.522;9.206;2023-07-13T03:28:44;18.30;99.90
16995;DHT22;8614;48.522;9.206;2023-07-13T03:31:18;18.30;99.90
16995;DHT22;8614;48.522;9.206;2023-07-13T03:33:45;18.30;99.90
16995;DHT22;8614;48.522;9.206;2023-07-13T03:36:16;18.30;99.90
16995;DHT22;8614;48.522;9.206;2023-07-13T03:38:47;18.30;99.90
16995;DHT22;8614;48.522;9.206;2023-07-13T03:41:14;18.30;99.90
16995;DHT22;8614;48.522;9.206;2023-07-13T03:43:42;18.30;99.90
16995;DHT22;8614;48.522;9.206;2023-07-13T03:46:10;18.30;99.90
16995;DHT22;8614;48.522;9.206;2023-07-13T03:48:37;18.30;99.90
16995;DHT22;8614;48.522;9.206;2023-07-13T03:51:05;18.30;99.90
16995;DHT22;8614;48.522;9.206;2023-07-13T03:53:32;18.30;99.90
16995;DHT22;8614;48.522;9.206;2023-07-13T03:56:00;18.30;99.90
16995;DHT22;8614;48.522;9.206;2023-07-13T03:58:31;18.30;99.90
16995;DHT22;8614;48.522;9.206;2023-07-13T04:01:06;18.30;99.90
16995;DHT22;8614;48.522;9.206;2023-07-13T04:03:33;18.20;99.90
16995;DHT22;8614;48.522;9.206;2023-07-13T04:06:01;18.20;99.90
16995;DHT22;8614;48.522;9.206;2023-07-13T04:08:30;18.20;99.90
16995;DHT22;8614;48.522;9.206;2023-07-13T04:11:00;18.20;99.90
16995;DHT22;8614;48.522;9.206;2023-07-13T04:13:28;18.20;99.90
16995;DHT22;8614;48.522;9.206;2023-07-13T04:15:55;18.30;99.90
16995;DHT22;8614;48.522;9.206;2023-07-13T04:18:22;18.30;99.90
16995;DHT22;8614;48.522;9.206;2023-07-13T04:20:50;18.30;99.90
16995;DHT22;8614;48.522;9.206;2023-07-13T04:23:17;18.40;99.90
16995;DHT22;8614;48.522;9.206;2023-07-13T04:25:44;18.40;99.90
16995;DHT22;8614;48.522;9.206;2023-07-13T04:28:12;18.40;99.90
16995;DHT22;8614;48.522;9.206;2023-07-13T04:30:39;18.40;99.90
16995;DHT22;8614;48.522;9.206;2023-07-13T04:33:06;18.40;99.90
16995;DHT22;8614;48.522;9.206;2023-07-13T04:35:34;18.30;99.90
16995;DHT22;8614;48.522;9.206;2023-07-13T04:38:01;18.30;99.90
16995;DHT22;8614;48.522;9.206;2023-07-13T04:40:28;18.30;99.90
16995;DHT22;8614;48.522;9.206;2023-07-13T04:42:56;18.30;99.90
16995;DHT22;8614;48.522;9.206;2023-07-13T04:45:24;18.40;99.90
16995;DHT22;8614;48.522;9.206;2023-07-13T04:47:51;18.40;99.90
16995;DHT22;8614;48.522;9.206;2023-07-13T04:50:18;18.40;99.90
16995;DHT22;8614;48.522;9.206;2023-07-13T04:52:49;18.40;99.90
16995;DHT22;8614;48.522;9.206;2023-07-13T04:55:16;18.40;99.90
16995;DHT22;8614;48.522;9.206;2023-07-13T04:57:43;18.40;99.90
16995;DHT22;8614;48.522;9.206;2023-07-13T05:00:11;18.50;99.90
16995;DHT22;8614;48.522;9.206;2023-07-13T05:02:39;18.50;99.90
16995;DHT22;8614;48.522;9.206;2023-07-13T05:05:07;18.50;99.90
16995;DHT22;8614;48.522;9.206;2023-07-13T05:07:34;18.40;99.90
16995;DHT22;8614;48.522;9.206;2023-07-13T05:10:00;18.40;99.90
16995;DHT22;8614;48.522;9.206;2023-07-13T05:12:28;18.50;99.90
16995;DHT22;8614;48.522;9.206;2023-07-13T05:14:55;18.50;99.90
16995;DHT22;8614;48.522;9.206;2023-07-13T05:17:22;18.60;99.90
16995;DHT22;8614;48.522;9.206;2023-07-13T05:19:50;18.70;99.90
16995;DHT22;8614;48.522;9.206;2023-07-13T05:22:17;18.80;99.90
16995;DHT22;8614;48.522;9.206;2023-07-13T05:24:43;18.80;99.90
16995;DHT22;8614;48.522;9.206;2023-07-13T05:27:10;18.90;99.90
16995;DHT22;8614;48.522;9.206;2023-07-13T05:29:37;18.90;99.90
16995;DHT22;8614;48.522;9.206;2023-07-13T05:32:04;19.00;99.90
16995;DHT22;8614;48.522;9.206;2023-07-13T05:34:31;19.10;99.90
16995;DHT22;8614;48.522;9.206;2023-07-13T05:36:59;19.20;99.90
16995;DHT22;8614;48.522;9.206;2023-07-13T05:39:26;19.30;99.90
16995;DHT22;8614;48.522;9.206;2023-07-13T05:41:53;19.40;99.90
16995;DHT22;8614;48.522;9.206;2023-07-13T05:44:20;19.50;99.90
16995;DHT22;8614;48.522;9.206;2023-07-13T05:46:46;19.70;99.90
16995;DHT22;8614;48.522;9.206;2023-07-13T05:49:13;19.70;99.90
16995;DHT22;8614;48.522;9.206;2023-07-13T05:51:40;19.70;99.90
16995;DHT22;8614;48.522;9.206;2023-07-13T05:54:08;19.70;99.90
16995;DHT22;8614;48.522;9.206;2023-07-13T05:56:35;20.00;99.90
16995;DHT22;8614;48.522;9.206;2023-07-13T05:59:02;20.60;99.90
16995;DHT22;8614;48.522;9.206;2023-07-13T06:01:29;21.50;99.90
16995;DHT22;8614;48.522;9.206;2023-07-13T06:03:57;22.30;99.90
16995;DHT22;8614;48.522;9.206;2023-07-13T06:06:24;22.90;99.90
16995;DHT22;8614;48.522;9.206;2023-07-13T06:08:50;22.90;99.90
16995;DHT22;8614;48.522;9.206;2023-07-13T06:11:20;23.00;99.90
16995;DHT22;8614;48.522;9.206;2023-07-13T06:13:47;23.40;99.90
16995;DHT22;8614;48.522;9.206;2023-07-13T06:16:15;23.40;99.90
16995;DHT22;8614;48.522;9.206;2023-07-13T06:18:42;23.30;99.90
16995;DHT22;8614;48.522;9.206;2023-07-13T06:21:10;23.10;99.90
16995;DHT22;8614;48.522;9.206;2023-07-13T06:23:37;23.10;99.90
16995;DHT22;8614;48.522;9.206;2023-07-13T06:26:04;23.40;99.90
16995;DHT22;8614;48.522;9.206;2023-07-13T06:28:33;24.00;99.90
16995;DHT22;8614;48.522;9.206;2023-07-13T06:31:00;24.20;99.90
16995;DHT22;8614;48.522;9.206;2023-07-13T06:33:27;24.60;99.90
16995;DHT22;8614;48.522;9.206;2023-07-13T06:35:54;25.00;99.90
16995;DHT22;8614;48.522;9.206;2023-07-13T06:38:21;25.30;99.90
16995;DHT22;8614;48.522;9.206;2023-07-13T06:40:48;25.70;99.90
16995;DHT22;8614;48.522;9.206;2023-07-13T06:43:15;26.00;99.90
16995;DHT22;8614;48.522;9.206;2023-07-13T06:45:44;26.20;99.90
16995;DHT22;8614;48.522;9.206;2023-07-13T06:48:13;26.30;99.90
16995;DHT22;8614;48.522;9.206;2023-07-13T06:50:40;26.60;99.90
16995;DHT22;8614;48.522;9.206;2023-07-13T06:53:07;26.60;99.90
16995;DHT22;8614;48.522;9.206;2023-07-13T06:55:34;26.50;99.90
16995;DHT22;8614;48.522;9.206;2023-07-13T06:58:01;26.60;99.90
16995;DHT22;8614;48.522;9.206;2023-07-13T07:00:28;26.90;99.90
16995;DHT22;8614;48.522;9.206;2023-07-13T07:02:56;27.20;99.90
16995;DHT22;8614;48.522;9.206;2023-07-13T07:05:23;27.60;99.90
16995;DHT22;8614;48.522;9.206;2023-07-13T07:07:50;27.80;99.90
16995;DHT22;8614;48.522;9.206;2023-07-13T07:10:17;27.60;99.90
16995;DHT22;8614;48.522;9.206;2023-07-13T07:12:44;27.90;99.90
16995;DHT22;8614;48.522;9.206;2023-07-13T07:15:12;28.00;99.90
16995;DHT22;8614;48.522;9.206;2023-07-13T07:17:39;28.20;99.90
16995;DHT22;8614;48.522;9.206;2023-07-13T07:20:08;28.00;98.40
16995;DHT22;8614;48.522;9.206;2023-07-13T07:22:35;27.60;99.20
16995;DHT22;8614;48.522;9.206;2023-07-13T07:25:03;27.20;99.60
16995;DHT22;8614;48.522;9.206;2023-07-13T07:27:30;26.80;99.30
16995;DHT22;8614;48.522;9.206;2023-07-13T07:29:57;26.20;99.90
16995;DHT22;8614;48.522;9.206;2023-07-13T07:32:24;25.70;99.90
16995;DHT22;8614;48.522;9.206;2023-07-13T07:34:51;25.80;99.90
16995;DHT22;8614;48.522;9.206;2023-07-13T07:37:19;26.40;99.90
16995;DHT22;8614;48.522;9.206;2023-07-13T07:39:46;26.90;99.90
16995;DHT22;8614;48.522;9.206;2023-07-13T07:42:12;27.50;98.80
16995;DHT22;8614;48.522;9.206;2023-07-13T07:44:40;27.90;97.70
16995;DHT22;8614;48.522;9.206;2023-07-13T07:47:08;27.90;96.60
16995;DHT22;8614;48.522;9.206;2023-07-13T07:49:35;27.20;97.20
16995;DHT22;8614;48.522;9.206;2023-07-13T07:52:02;26.80;98.10
16995;DHT22;8614;48.522;9.206;2023-07-13T07:54:30;26.50;97.30
16995;DHT22;8614;48.522;9.206;2023-07-13T07:56:56;26.30;98.40
16995;DHT22;8614;48.522;9.206;2023-07-13T07:59:23;26.10;98.80
16995;DHT22;8614;48.522;9.206;2023-07-13T08:01:50;26.20;99.30
16995;DHT22;8614;48.522;9.206;2023-07-13T08:04:17;26.30;97.30
16995;DHT22;8614;48.522;9.206;2023-07-13T08:06:44;26.70;98.50
16995;DHT22;8614;48.522;9.206;2023-07-13T08:09:11;27.30;96.40
16995;DHT22;8614;48.522;9.206;2023-07-13T08:11:39;27.40;95.90
16995;DHT22;8614;48.522;9.206;2023-07-13T08:14:05;27.40;95.90
16995;DHT22;8614;48.522;9.206;2023-07-13T08:16:32;27.80;97.00
16995;DHT22;8614;48.522;9.206;2023-07-13T08:18:59;28.50;96.00
16995;DHT22;8614;48.522;9.206;2023-07-13T08:21:26;28.80;94.30
16995;DHT22;8614;48.522;9.206;2023-07-13T08:23:53;28.70;92.60
16995;DHT22;8614;48.522;9.206;2023-07-13T08:26:20;29.00;92.90
16995;DHT22;8614;48.522;9.206;2023-07-13T08:28:48;29.20;93.30
16995;DHT22;8614;48.522;9.206;2023-07-13T08:31:15;29.40;94.30
16995;DHT22;8614;48.522;9.206;2023-07-13T08:33:42;29.60;93.70
16995;DHT22;8614;48.522;9.206;2023-07-13T08:36:09;29.10;90.90
16995;DHT22;8614;48.522;9.206;2023-07-13T08:38:35;29.40;92.50
16995;DHT22;8614;48.522;9.206;2023-07-13T08:41:11;29.40;92.50
16995;DHT22;8614;48.522;9.206;2023-07-13T08:43:38;29.30;92.50
16995;DHT22;8614;48.522;9.206;2023-07-13T08:46:11;29.50;92.90
16995;DHT22;8614;48.522;9.206;2023-07-13T08:48:43;29.20;92.10
16995;DHT22;8614;48.522;9.206;2023-07-13T08:51:22;29.20;92.20
16995;DHT22;8614;48.522;9.206;2023-07-13T08:53:54;29.40;92.00
16995;DHT22;8614;48.522;9.206;2023-07-13T08:56:24;29.90;91.10
16995;DHT22;8614;48.522;9.206;2023-07-13T08:58:56;29.70;91.60
16995;DHT22;8614;48.522;9.206;2023-07-13T09:01:31;29.40;91.30
16995;DHT22;8614;48.522;9.206;2023-07-13T09:04:04;29.20;91.80
16995;DHT22;8614;48.522;9.206;2023-07-13T09:06:39;29.50;92.90
16995;DHT22;8614;48.522;9.206;2023-07-13T09:09:20;29.90;92.10
16995;DHT22;8614;48.522;9.206;2023-07-13T09:11:59;30.10;92.50
16995;DHT22;8614;48.522;9.206;2023-07-13T09:14:42;30.30;91.50
16995;DHT22;8614;48.522;9.206;2023-07-13T09:17:17;30.10;89.00
16995;DHT22;8614;48.522;9.206;2023-07-13T09:19:49;29.90;90.00
16995;DHT22;8614;48.522;9.206;2023-07-13T09:22:20;29.50;88.30
16995;DHT22;8614;48.522;9.206;2023-07-13T09:24:54;29.60;91.10
16995;DHT22;8614;48.522;9.206;2023-07-13T09:27:23;30.00;91.00
16995;DHT22;8614;48.522;9.206;2023-07-13T09:29:57;30.20;88.60
16995;DHT22;8614;48.522;9.206;2023-07-13T09:32:26;30.50;90.30
16995;DHT22;8614;48.522;9.206;2023-07-13T09:34:54;30.70;88.70
16995;DHT22;8614;48.522;9.206;2023-07-13T09:37:23;30.60;88.30
16995;DHT22;8614;48.522;9.206;2023-07-13T09:39:55;30.50;90.30
16995;DHT22;8614;48.522;9.206;2023-07-13T09:42:25;30.70;89.30
16995;DHT22;8614;48.522;9.206;2023-07-13T09:44:55;30.80;86.00
16995;DHT22;8614;48.522;9.206;2023-07-13T09:47:24;31.10;85.50
16995;DHT22;8614;48.522;9.206;2023-07-13T09:49:59;31.20;86.30
16995;DHT22;8614;48.522;9.206;2023-07-13T09:52:27;31.30;85.70
16995;DHT22;8614;48.522;9.206;2023-07-13T09:54:55;30.80;84.80
16995;DHT22;8614;48.522;9.206;2023-07-13T09:57:27;31.10;84.90
16995;DHT22;8614;48.522;9.206;2023-07-13T09:59:55;31.10;86.70
16995;DHT22;8614;48.522;9.206;2023-07-13T10:02:27;31.50;87.30
16995;DHT22;8614;48.522;9.206;2023-07-13T10:05:00;31.90;81.50
16995;DHT22;8614;48.522;9.206;2023-07-13T10:07:29;32.20;84.70
16995;DHT22;8614;48.522;9.206;2023-07-13T10:09:57;32.30;83.30
16995;DHT22;8614;48.522;9.206;2023-07-13T10:12:27;31.70;77.60
16995;DHT22;8614;48.522;9.206;2023-07-13T10:14:56;30.90;83.70
16995;DHT22;8614;48.522;9.206;2023-07-13T10:17:30;30.70;84.40
16995;DHT22;8614;48.522;9.206;2023-07-13T10:20:02;30.90;84.40
16995;DHT22;8614;48.522;9.206;2023-07-13T10:22:37;31.10;84.10
16995;DHT22;8614;48.522;9.206;2023-07-13T10:25:15;30.90;82.50
16995;DHT22;8614;48.522;9.206;2023-07-13T10:27:43;31.00;81.80
16995;DHT22;8614;48.522;9.206;2023-07-13T10:30:15;30.80;84.50
16995;DHT22;8614;48.522;9.206;2023-07-13T10:32:43;30.40;83.80
16995;DHT22;8614;48.522;9.206;2023-07-13T10:35:15;30.50;84.80
16995;DHT22;8614;48.522;9.206;2023-07-13T10:37:48;30.60;82.80
16995;DHT22;8614;48.522;9.206;2023-07-13T10:40:19;30.70;85.30
16995;DHT22;8614;48.522;9.206;2023-07-13T10:42:50;30.40;83.20
16995;DHT22;8614;48.522;9.206;2023-07-13T10:45:21;30.40;82.30
16995;DHT22;8614;48.522;9.206;2023-07-13T10:47:50;29.70;81.40
16995;DHT22;8614;48.522;9.206;2023-07-13T10:50:22;29.60;84.70
16995;DHT22;8614;48.522;9.206;2023-07-13T10:53:17;29.80;81.70
16995;DHT22;8614;48.522;9.206;2023-07-13T10:56:27;29.60;82.20
16995;DHT22;8614;48.522;9.206;2023-07-13T10:59:17;29.30;82.80
16995;DHT22;8614;48.522;9.206;2023-07-13T11:01:56;29.10;84.00
16995;DHT22;8614;48.522;9.206;2023-07-13T11:04:27;29.10;82.40
16995;DHT22;8614;48.522;9.206;2023-07-13T11:06:59;29.20;85.50
16995;DHT22;8614;48.522;9.206;2023-07-13T11:09:38;29.50;84.70
16995;DHT22;8614;48.522;9.206;2023-07-13T11:12:27;29.80;85.80
16995;DHT22;8614;48.522;9.206;2023-07-13T11:15:15;29.90;81.60
16995;DHT22;8614;48.522;9.206;2023-07-13T11:17:54;29.70;81.00
16995;DHT22;8614;48.522;9.206;2023-07-13T11:20:37;29.40;82.40
16995;DHT22;8614;48.522;9.206;2023-07-13T11:23:26;29.40;84.00
16995;DHT22;8614;48.522;9.206;2023-07-13T11:25:54;29.40;82.30
16995;DHT22;8614;48.522;9.206;2023-07-13T11:28:25;29.50;83.60
16995;DHT22;8614;48.522;9.206;2023-07-13T11:31:01;29.40;82.90
16995;DHT22;8614;48.522;9.206;2023-07-13T11:33:45;29.10;84.80
16995;DHT22;8614;48.522;9.206;2023-07-13T11:36:15;29.00;85.00
16995;DHT22;8614;48.522;9.206;2023-07-13T11:38:57;29.20;85.20
16995;DHT22;8614;48.522;9.206;2023-07-13T11:41:28;29.20;86.10
16995;DHT22;8614;48.522;9.206;2023-07-13T11:44:07;28.90;86.30
16995;DHT22;8614;48.522;9.206;2023-07-13T11:46:34;28.90;86.00
16995;DHT22;8614;48.522;9.206;2023-07-13T11:49:00;28.70;84.20
16995;DHT22;8614;48.522;9.206;2023-07-13T11:51:29;28.40;86.40
16995;DHT22;8614;48.522;9.206;2023-07-13T11:54:03;28.40;84.80
16995;DHT22;8614;48.522;9.206;2023-07-13T11:56:30;28.60;86.50
16995;DHT22;8614;48.522;9.206;2023-07-13T11:58:59;28.50;83.40
16995;DHT22;8614;48.522;9.206;2023-07-13T12:01:31;28.00;83.60
16995;DHT22;8614;48.522;9.206;2023-07-13T12:04:00;28.20;86.00
16995;DHT22;8614;48.522;9.206;2023-07-13T12:06:29;28.40;86.00
16995;DHT22;8614;48.522;9.206;2023-07-13T12:08:59;28.40;85.50
16995;DHT22;8614;48.522;9.206;2023-07-13T12:11:27;28.20;85.30
16995;DHT22;8614;48.522;9.206;2023-07-13T12:13:54;28.00;86.40
16995;DHT22;8614;48.522;9.206;2023-07-13T12:16:26;27.70;88.90
16995;DHT22;8614;48.522;9.206;2023-07-13T12:18:55;27.40;89.90
16995;DHT22;8614;48.522;9.206;2023-07-13T12:21:26;27.20;88.50
16995;DHT22;8614;48.522;9.206;2023-07-13T12:23:54;27.40;85.50
16995;DHT22;8614;48.522;9.206;2023-07-13T12:26:22;27.60;85.10
16995;DHT22;8614;48.522;9.206;2023-07-13T12:28:52;28.00;86.60
16995;DHT22;8614;48.522;9.206;2023-07-13T12:31:30;28.20;83.30
16995;DHT22;8614;48.522;9.206;2023-07-13T12:33:59;28.40;85.40
16995;DHT22;8614;48.522;9.206;2023-07-13T12:36:29;28.40;84.20
16995;DHT22;8614;48.522;9.206;2023-07-13T12:39:12;28.10;87.90
16995;DHT22;8614;48.522;9.206;2023-07-13T12:41:41;27.60;86.30
16995;DHT22;8614;48.522;9.206;2023-07-13T12:44:13;27.50;87.40
16995;DHT22;8614;48.522;9.206;2023-07-13T12:46:55;27.50;85.70
16995;DHT22;8614;48.522;9.206;2023-07-13T12:49:30;27.30;85.70
16995;DHT22;8614;48.522;9.206;2023-07-13T12:52:02;27.30;88.30
16995;DHT22;8614;48.522;9.206;2023-07-13T12:54:31;27.50;87.50
16995;DHT22;8614;48.522;9.206;2023-07-13T12:57:00;27.60;87.60
16995;DHT22;8614;48.522;9.206;2023-07-13T12:59:31;27.50;87.60
16995;DHT22;8614;48.522;9.206;2023-07-13T13:02:02;27.30;86.50
16995;DHT22;8614;48.522;9.206;2023-07-13T13:04:30;27.10;86.20
16995;DHT22;8614;48.522;9.206;2023-07-13T13:07:01;27.20;85.00
16995;DHT22;8614;48.522;9.206;2023-07-13T13:09:29;27.30;85.70
16995;DHT22;8614;48.522;9.206;2023-07-13T13:11:55;27.30;81.50
16995;DHT22;8614;48.522;9.206;2023-07-13T13:14:24;27.50;82.00
16995;DHT22;8614;48.522;9.206;2023-07-13T13:16:51;27.50;83.60
16995;DHT22;8614;48.522;9.206;2023-07-13T13:19:21;27.70;82.20
16995;DHT22;8614;48.522;9.206;2023-07-13T13:21:49;27.80;84.20
16995;DHT22;8614;48.522;9.206;2023-07-13T13:24:20;27.80;81.70
16995;DHT22;8614;48.522;9.206;2023-07-13T13:26:47;27.60;84.20
16995;DHT22;8614;48.522;9.206;2023-07-13T13:29:17;27.60;85.50
16995;DHT22;8614;48.522;9.206;2023-07-13T13:31:45;27.60;83.80
16995;DHT22;8614;48.522;9.206;2023-07-13T13:34:14;27.70;83.60
16995;DHT22;8614;48.522;9.206;2023-07-13T13:36:41;27.80;85.30
16995;DHT22;8614;48.522;9.206;2023-07-13T13:39:18;27.80;84.60
16995;DHT22;8614;48.522;9.206;2023-07-13T13:41:45;27.80;84.30
16995;DHT22;8614;48.522;9.206;2023-07-13T13:44:14;28.00;81.70
16995;DHT22;8614;48.522;9.206;2023-07-13T13:46:41;28.20;84.70
16995;DHT22;8614;48.522;9.206;2023-07-13T13:49:14;28.30;83.60
16995;DHT22;8614;48.522;9.206;2023-07-13T13:51:42;28.20;81.50
16995;DHT22;8614;48.522;9.206;2023-07-13T13:54:12;27.90;83.40
16995;DHT22;8614;48.522;9.206;2023-07-13T13:56:40;27.50;82.40
16995;DHT22;8614;48.522;9.206;2023-07-13T13:59:07;27.40;83.20
16995;DHT22;8614;48.522;9.206;2023-07-13T14:01:35;27.20;84.20
16995;DHT22;8614;48.522;9.206;2023-07-13T14:04:03;27.10;85.10
16995;DHT22;8614;48.522;9.206;2023-07-13T14:06:33;27.10;82.50
16995;DHT22;8614;48.522;9.206;2023-07-13T14:09:00;27.10;80.40
16995;DHT22;8614;48.522;9.206;2023-07-13T14:11:29;27.00;81.30
16995;DHT22;8614;48.522;9.206;2023-07-13T14:13:58;27.00;81.70
16995;DHT22;8614;48.522;9.206;2023-07-13T14:16:27;27.20;85.10
16995;DHT22;8614;48.522;9.206;2023-07-13T14:18:55;27.40;85.60
16995;DHT22;8614;48.522;9.206;2023-07-13T14:21:26;27.60;82.50
16995;DHT22;8614;48.522;9.206;2023-07-13T14:23:55;27.60;82.50
16995;DHT22;8614;48.522;9.206;2023-07-13T14:26:24;27.70;86.50
16995;DHT22;8614;48.522;9.206;2023-07-13T14:28:53;27.80;84.40
16995;DHT22;8614;48.522;9.206;2023-07-13T14:31:21;27.90;81.50
16995;DHT22;8614;48.522;9.206;2023-07-13T14:33:49;28.00;83.00
16995;DHT22;8614;48.522;9.206;2023-07-13T14:36:25;27.80;81.00
16995;DHT22;8614;48.522;9.206;2023-07-13T14:38:54;27.80;82.30
16995;DHT22;8614;48.522;9.206;2023-07-13T14:41:22;27.60;79.80
16995;DHT22;8614;48.522;9.206;2023-07-13T14:43:49;27.60;81.50
16995;DHT22;8614;48.522;9.206;2023-07-13T14:46:28;27.70;80.90
16995;DHT22;8614;48.522;9.206;2023-07-13T14:49:01;27.80;79.80
16995;DHT22;8614;48.522;9.206;2023-07-13T14:51:29;27.70;78.50
16995;DHT22;8614;48.522;9.206;2023-07-13T14:54:04;27.70;81.40
16995;DHT22;8614;48.522;9.206;2023-07-13T14:56:31;27.60;81.10
16995;DHT22;8614;48.522;9.206;2023-07-13T14:58:58;27.60;80.30
16995;DHT22;8614;48.522;9.206;2023-07-13T15:01:25;27.70;79.70
16995;DHT22;8614;48.522;9.206;2023-07-13T15:03:52;27.70;80.50
16995;DHT22;8614;48.522;9.206;2023-07-13T15:06:19;27.60;79.70
16995;DHT22;8614;48.522;9.206;2023-07-13T15:08:47;27.40;80.40
16995;DHT22;8614;48.522;9.206;2023-07-13T15:11:16;27.40;83.20
16995;DHT22;8614;48.522;9.206;2023-07-13T15:13:43;27.30;80.70
16995;DHT22;8614;48.522;9.206;2023-07-13T15:16:22;27.30;81.00
16995;DHT22;8614;48.522;9.206;2023-07-13T15:18:50;27.30;80.30
16995;DHT22;8614;48.522;9.206;2023-07-13T15:21:20;27.20;78.40
16995;DHT22;8614;48.522;9.206;2023-07-13T15:23:48;27.10;82.70
16995;DHT22;8614;48.522;9.206;2023-07-13T15:26:17;27.10;83.90
16995;DHT22;8614;48.522;9.206;2023-07-13T15:28:45;27.00;81.70
16995;DHT22;8614;48.522;9.206;2023-07-13T15:31:19;26.90;81.00
16995;DHT22;8614;48.522;9.206;2023-07-13T15:33:46;26.80;82.50
16995;DHT22;8614;48.522;9.206;2023-07-13T15:36:15;26.70;81.80
16995;DHT22;8614;48.522;9.206;2023-07-13T15:38:43;26.80;80.70
16995;DHT22;8614;48.522;9.206;2023-07-13T15:41:18;26.80;80.70
16995;DHT22;8614;48.522;9.206;2023-07-13T15:43:46;26.80;82.10
16995;DHT22;8614;48.522;9.206;2023-07-13T15:46:13;26.80;83.60
16995;DHT22;8614;48.522;9.206;2023-07-13T15:48:39;26.90;82.70
16995;DHT22;8614;48.522;9.206;2023-07-13T15:51:13;26.90;83.50
16995;DHT22;8614;48.522;9.206;2023-07-13T15:53:42;26.80;83.90
16995;DHT22;8614;48.522;9.206;2023-07-13T15:56:20;26.80;86.30
16995;DHT22;8614;48.522;9.206;2023-07-13T15:58:47;26.80;86.50
16995;DHT22;8614;48.522;9.206;2023-07-13T16:01:15;26.60;85.70